sensor_id;sensor_type;location;lat;lon;timestamp;pressure;altitude;pressure_sealevel;temperature;humidity
74327;BME280;62745;51.060;13.786;2023-04-15T00:01:46;99142.69;;;6.26;100.00
74327;BME280;62745;51.060;13.786;2023-04-15T00:04:12;99145.72;;;6.23;100.00
74327;BME280;62745;51.060;13.786;2023-04-15T00:06:37;99139.59;;;6.23;100.00
74327;BME280;62745;51.060;13.786;2023-04-15T00:09:04;99127.69;;;6.19;100.00
74327;BME280;62745;51.060;13.786;2023-04-15T00:11:29;99116.47;;;6.17;100.00
74327;BME280;62745;51.060;13.786;2023-04-15T00:13:54;99130.16;;;6.20;100.00
74327;BME280;62745;51.060;13.786;2023-04-15T00:16:19;99127.28;;;6.15;100.00
74327;BME280;62745;51.060;13.786;2023-04-15T00:18:45;99126.44;;;6.15;100.00
74327;BME280;62745;51.060;13.786;2023-04-15T00:21:10;99137.28;;;6.20;100.00
74327;BME280;62745;51.060;13.786;2023-04-15T00:23:36;99139.13;;;6.19;100.00
74327;BME280;62745;51.060;13.786;2023-04-15T00:26:01;99143.50;;;6.27;100.00
74327;BME280;62745;51.060;13.786;2023-04-15T00:28:26;99123.59;;;6.16;100.00
74327;BME280;62745;51.060;13.786;2023-04-15T00:30:52;99132.44;;;6.23;100.00
74327;BME280;62745;51.060;13.786;2023-04-15T00:33:17;99126.88;;;6.18;100.00
74327;BME280;62745;51.060;13.786;2023-04-15T00:35:42;99120.00;;;6.24;100.00
74327;BME280;62745;51.060;13.786;2023-04-15T00:38:08;99118.72;;;6.20;100.00
74327;BME280;62745;51.060;13.786;2023-04-15T00:40:33;99120.63;;;6.26;100.00
74327;BME280;62745;51.060;13.786;2023-04-15T00:42:59;99107.13;;;6.21;100.00
74327;BME280;62745;51.060;13.786;2023-04-15T00:45:25;99127.78;;;6.25;100.00
74327;BME280;62745;51.060;13.786;2023-04-15T00:47:52;99103.59;;;6.14;100.00
74327;BME280;62745;51.060;13.786;2023-04-15T00:50:17;99123.28;;;6.26;100.00
74327;BME280;62745;51.060;13.786;2023-04-15T00:52:42;99116.09;;;6.20;100.00
74327;BME280;62745;51.060;13.786;2023-04-15T00:55:08;99117.09;;;6.19;100.00
74327;BME280;62745;51.060;13.786;2023-04-15T00:57:34;99103.66;;;6.20;100.00
74327;BME280;62745;51.060;13.786;2023-04-15T01:00:00;99117.56;;;6.22;100.00
74327;BME280;62745;51.060;13.786;2023-04-15T01:02:26;99102.00;;;6.19;100.00
74327;BME280;62745;51.060;13.786;2023-04-15T01:04:52;99104.03;;;6.17;100.00
74327;BME280;62745;51.060;13.786;2023-04-15T01:07:17;99102.47;;;6.23;100.00
74327;BME280;62745;51.060;13.786;2023-04-15T01:09:42;99104.91;;;6.24;100.00
74327;BME280;62745;51.060;13.786;2023-04-15T01:12:11;99105.75;;;6.25;100.00
74327;BME280;62745;51.060;13.786;2023-04-15T01:14:36;99101.00;;;6.20;100.00
74327;BME280;62745;51.060;13.786;2023-04-15T01:17:02;99099.22;;;6.27;100.00
74327;BME280;62745;51.060;13.786;2023-04-15T01:19:27;99102.28;;;6.24;100.00
74327;BME280;62745;51.060;13.786;2023-04-15T01:21:53;99100.63;;;6.23;100.00
74327;BME280;62745;51.060;13.786;2023-04-15T01:24:19;99086.88;;;6.13;100.00
74327;BME280;62745;51.060;13.786;2023-04-15T01:26:45;99103.28;;;6.23;100.00
74327;BME280;62745;51.060;13.786;2023-04-15T01:29:10;99086.91;;;6.20;100.00
74327;BME280;62745;51.060;13.786;2023-04-15T01:31:36;99096.06;;;6.39;100.00
74327;BME280;62745;51.060;13.786;2023-04-15T01:34:01;99073.31;;;6.23;100.00
74327;BME280;62745;51.060;13.786;2023-04-15T01:36:26;99088.91;;;6.39;100.00
74327;BME280;62745;51.060;13.786;2023-04-15T01:38:53;99085.63;;;6.37;100.00
74327;BME280;62745;51.060;13.786;2023-04-15T01:41:26;99084.78;;;6.37;100.00
74327;BME280;62745;51.060;13.786;2023-04-15T01:43:52;99090.50;;;6.33;100.00
74327;BME280;62745;51.060;13.786;2023-04-15T01:46:18;99096.47;;;6.42;100.00
74327;BME280;62745;51.060;13.786;2023-04-15T01:48:43;99098.06;;;6.37;100.00
74327;BME280;62745;51.060;13.786;2023-04-15T01:51:08;99085.44;;;6.39;100.00
74327;BME280;62745;51.060;13.786;2023-04-15T01:53:34;99087.09;;;6.40;100.00
74327;BME280;62745;51.060;13.786;2023-04-15T01:55:59;99080.31;;;6.37;100.00
74327;BME280;62745;51.060;13.786;2023-04-15T01:58:25;99081.94;;;6.38;100.00
74327;BME280;62745;51.060;13.786;2023-04-15T02:00:51;99072.53;;;6.36;100.00
74327;BME280;62745;51.060;13.786;2023-04-15T02:03:16;99066.22;;;6.37;100.00
74327;BME280;62745;51.060;13.786;2023-04-15T02:05:42;99067.84;;;6.31;100.00
74327;BME280;62745;51.060;13.786;2023-04-15T02:08:08;99063.75;;;6.28;100.00
74327;BME280;62745;51.060;13.786;2023-04-15T02:10:33;99068.66;;;6.31;100.00
74327;BME280;62745;51.060;13.786;2023-04-15T02:12:59;99068.66;;;6.31;100.00
74327;BME280;62745;51.060;13.786;2023-04-15T02:15:24;99060.31;;;6.34;100.00
74327;BME280;62745;51.060;13.786;2023-04-15T02:17:50;99064.22;;;6.39;100.00
74327;BME280;62745;51.060;13.786;2023-04-15T02:20:19;99067.50;;;6.41;100.00
74327;BME280;62745;51.060;13.786;2023-04-15T02:22:45;99059.69;;;6.32;100.00
74327;BME280;62745;51.060;13.786;2023-04-15T02:25:11;99060.50;;;6.33;100.00
74327;BME280;62745;51.060;13.786;2023-04-15T02:27:36;99055.97;;;6.27;100.00
74327;BME280;62745;51.060;13.786;2023-04-15T02:30:01;99051.88;;;6.24;100.00
74327;BME280;62745;51.060;13.786;2023-04-15T02:32:27;99054.53;;;6.24;100.00
74327;BME280;62745;51.060;13.786;2023-04-15T02:34:53;99053.31;;;6.27;100.00
74327;BME280;62745;51.060;13.786;2023-04-15T02:37:18;99057.63;;;6.28;100.00
74327;BME280;62745;51.060;13.786;2023-04-15T02:39:44;99056.59;;;6.29;100.00
74327;BME280;62745;51.060;13.786;2023-04-15T02:42:10;99055.59;;;6.30;100.00
74327;BME280;62745;51.060;13.786;2023-04-15T02:44:35;99051.09;;;6.30;100.00
74327;BME280;62745;51.060;13.786;2023-04-15T02:47:00;99066.63;;;6.33;100.00
74327;BME280;62745;51.060;13.786;2023-04-15T02:49:26;99070.91;;;6.34;100.00
74327;BME280;62745;51.060;13.786;2023-04-15T02:51:53;99063.78;;;6.35;100.00
74327;BME280;62745;51.060;13.786;2023-04-15T02:54:20;99066.88;;;6.39;100.00
74327;BME280;62745;51.060;13.786;2023-04-15T02:56:47;99063.38;;;6.38;100.00
74327;BME280;62745;51.060;13.786;2023-04-15T02:59:12;99056.63;;;6.36;100.00
74327;BME280;62745;51.060;13.786;2023-04-15T03:01:37;99055.81;;;6.35;100.00
74327;BME280;62745;51.060;13.786;2023-04-15T03:04:03;99051.31;;;6.29;100.00
74327;BME280;62745;51.060;13.786;2023-04-15T03:06:28;99054.78;;;6.29;100.00
74327;BME280;62745;51.060;13.786;2023-04-15T03:08:53;99046.31;;;6.19;100.00
74327;BME280;62745;51.060;13.786;2023-04-15T03:11:19;99054.97;;;6.28;100.00
74327;BME280;62745;51.060;13.786;2023-04-15T03:13:44;99042.03;;;6.18;100.00
74327;BME280;62745;51.060;13.786;2023-04-15T03:16:09;99037.41;;;6.27;100.00
74327;BME280;62745;51.060;13.786;2023-04-15T03:18:35;99043.19;;;6.37;100.00
74327;BME280;62745;51.060;13.786;2023-04-15T03:21:00;99045.41;;;6.33;100.00
74327;BME280;62745;51.060;13.786;2023-04-15T03:23:26;99039.69;;;6.37;100.00
74327;BME280;62745;51.060;13.786;2023-04-15T03:25:52;99037.41;;;6.27;100.00
74327;BME280;62745;51.060;13.786;2023-04-15T03:28:20;99042.13;;;6.31;100.00
74327;BME280;62745;51.060;13.786;2023-04-15T03:30:45;99023.06;;;6.21;100.00
74327;BME280;62745;51.060;13.786;2023-04-15T03:33:10;99026.38;;;6.23;100.00
74327;BME280;62745;51.060;13.786;2023-04-15T03:35:36;99034.16;;;6.25;100.00
74327;BME280;62745;51.060;13.786;2023-04-15T03:38:02;99037.22;;;6.28;100.00
74327;BME280;62745;51.060;13.786;2023-04-15T03:40:27;99033.94;;;6.26;100.00
74327;BME280;62745;51.060;13.786;2023-04-15T03:42:52;99014.97;;;6.23;100.00
74327;BME280;62745;51.060;13.786;2023-04-15T03:45:17;99009.81;;;6.21;100.00
74327;BME280;62745;51.060;13.786;2023-04-15T03:47:43;99031.50;;;6.25;100.00
74327;BME280;62745;51.060;13.786;2023-04-15T03:50:08;99025.78;;;6.28;100.00
74327;BME280;62745;51.060;13.786;2023-04-15T03:52:33;99006.19;;;6.22;100.00
74327;BME280;62745;51.060;13.786;2023-04-15T03:54:59;99026.41;;;6.30;100.00
74327;BME280;62745;51.060;13.786;2023-04-15T03:57:24;99020.53;;;6.34;100.00
74327;BME280;62745;51.060;13.786;2023-04-15T03:59:50;99016.19;;;6.27;100.00
74327;BME280;62745;51.060;13.786;2023-04-15T04:02:15;99008.03;;;6.22;100.00
74327;BME280;62745;51.060;13.786;2023-04-15T04:04:41;99006.59;;;6.26;100.00
74327;BME280;62745;51.060;13.786;2023-04-15T04:07:07;99027.84;;;6.32;100.00
74327;BME280;62745;51.060;13.786;2023-04-15T04:09:32;99027.31;;;6.44;100.00
74327;BME280;62745;51.060;13.786;2023-04-15T04:11:58;99029.84;;;6.58;100.00
74327;BME280;62745;51.060;13.786;2023-04-15T04:14:23;99024.28;;;6.47;100.00
74327;BME280;62745;51.060;13.786;2023-04-15T04:16:53;99022.78;;;6.38;100.00
74327;BME280;62745;51.060;13.786;2023-04-15T04:19:18;99013.56;;;6.33;100.00
74327;BME280;62745;51.060;13.786;2023-04-15T04:21:44;99017.88;;;6.34;100.00
74327;BME280;62745;51.060;13.786;2023-04-15T04:24:09;99015.56;;;6.25;100.00
74327;BME280;62745;51.060;13.786;2023-04-15T04:26:35;99017.03;;;6.27;100.00
74327;BME280;62745;51.060;13.786;2023-04-15T04:29:01;99029.53;;;6.40;100.00
74327;BME280;62745;51.060;13.786;2023-04-15T04:31:26;99025.44;;;6.38;100.00
74327;BME280;62745;51.060;13.786;2023-04-15T04:33:51;99019.31;;;6.37;100.00
74327;BME280;62745;51.060;13.786;2023-04-15T04:36:17;99027.53;;;6.49;100.00
74327;BME280;62745;51.060;13.786;2023-04-15T04:38:42;99022.03;;;6.50;100.00
74327;BME280;62745;51.060;13.786;2023-04-15T04:41:07;99033.16;;;6.67;100.00
74327;BME280;62745;51.060;13.786;2023-04-15T04:43:33;99035.91;;;6.52;100.00
74327;BME280;62745;51.060;13.786;2023-04-15T04:45:58;99037.34;;;6.48;100.00
74327;BME280;62745;51.060;13.786;2023-04-15T04:48:23;99034.34;;;6.58;100.00
74327;BME280;62745;51.060;13.786;2023-04-15T04:50:48;99046.22;;;6.69;100.00
74327;BME280;62745;51.060;13.786;2023-04-15T04:53:14;99058.44;;;6.63;100.00
74327;BME280;62745;51.060;13.786;2023-04-15T04:55:39;99051.50;;;6.62;100.00
74327;BME280;62745;51.060;13.786;2023-04-15T04:58:04;99043.97;;;6.66;100.00
74327;BME280;62745;51.060;13.786;2023-04-15T05:00:29;99058.44;;;6.63;100.00
74327;BME280;62745;51.060;13.786;2023-04-15T05:02:55;99053.09;;;6.56;100.00
74327;BME280;62745;51.060;13.786;2023-04-15T05:05:20;99064.38;;;6.65;100.00
74327;BME280;62745;51.060;13.786;2023-04-15T05:07:46;99036.53;;;6.54;100.00
74327;BME280;62745;51.060;13.786;2023-04-15T05:10:13;99051.63;;;6.54;100.00
74327;BME280;62745;51.060;13.786;2023-04-15T05:12:39;99053.09;;;6.56;100.00
74327;BME280;62745;51.060;13.786;2023-04-15T05:15:05;99059.47;;;6.62;100.00
74327;BME280;62745;51.060;13.786;2023-04-15T05:17:30;99054.13;;;6.55;100.00
74327;BME280;62745;51.060;13.786;2023-04-15T05:19:57;99060.88;;;6.58;100.00
74327;BME280;62745;51.060;13.786;2023-04-15T05:22:22;99049.56;;;6.43;100.00
74327;BME280;62745;51.060;13.786;2023-04-15T05:24:47;99059.47;;;6.62;100.00
74327;BME280;62745;51.060;13.786;2023-04-15T05:27:13;99048.75;;;6.83;100.00
74327;BME280;62745;51.060;13.786;2023-04-15T05:29:38;99057.59;;;7.04;100.00
74327;BME280;62745;51.060;13.786;2023-04-15T05:32:03;99056.16;;;6.94;100.00
74327;BME280;62745;51.060;13.786;2023-04-15T05:34:29;99045.09;;;6.91;100.00
74327;BME280;62745;51.060;13.786;2023-04-15T05:36:54;99046.34;;;6.95;100.00
74327;BME280;62745;51.060;13.786;2023-04-15T05:39:19;99062.44;;;6.87;100.00
74327;BME280;62745;51.060;13.786;2023-04-15T05:41:45;99062.81;;;6.77;100.00
74327;BME280;62745;51.060;13.786;2023-04-15T05:44:10;99059.34;;;6.83;100.00
74327;BME280;62745;51.060;13.786;2023-04-15T05:46:36;99069.63;;;7.00;100.00
74327;BME280;62745;51.060;13.786;2023-04-15T05:49:01;99066.16;;;6.99;100.00
74327;BME280;62745;51.060;13.786;2023-04-15T05:51:26;99081.13;;;7.07;100.00
74327;BME280;62745;51.060;13.786;2023-04-15T05:53:51;99070.72;;;7.18;100.00
74327;BME280;62745;51.060;13.786;2023-04-15T05:56:17;99084.00;;;7.12;100.00
74327;BME280;62745;51.060;13.786;2023-04-15T05:58:44;99087.47;;;7.12;100.00
74327;BME280;62745;51.060;13.786;2023-04-15T06:01:09;99097.69;;;7.15;100.00
74327;BME280;62745;51.060;13.786;2023-04-15T06:03:34;99079.28;;;7.07;100.00
74327;BME280;62745;51.060;13.786;2023-04-15T06:06:00;99098.06;;;7.06;100.00
74327;BME280;62745;51.060;13.786;2023-04-15T06:08:26;99094.63;;;7.12;100.00
74327;BME280;62745;51.060;13.786;2023-04-15T06:10:51;99111.38;;;7.12;100.00
74327;BME280;62745;51.060;13.786;2023-04-15T06:13:17;99103.13;;;7.01;100.00
74327;BME280;62745;51.060;13.786;2023-04-15T06:15:42;99088.28;;;7.13;100.00
74327;BME280;62745;51.060;13.786;2023-04-15T06:18:07;99105.91;;;7.27;100.00
74327;BME280;62745;51.060;13.786;2023-04-15T06:20:33;99107.75;;;7.27;100.00
74327;BME280;62745;51.060;13.786;2023-04-15T06:22:58;99092.78;;;7.19;100.00
74327;BME280;62745;51.060;13.786;2023-04-15T06:25:23;99109.25;;;7.49;100.00
74327;BME280;62745;51.060;13.786;2023-04-15T06:27:48;99105.16;;;7.40;100.00
74327;BME280;62745;51.060;13.786;2023-04-15T06:30:14;99111.28;;;7.40;100.00
74327;BME280;62745;51.060;13.786;2023-04-15T06:32:39;99113.91;;;7.34;100.00
74327;BME280;62745;51.060;13.786;2023-04-15T06:35:04;99114.50;;;7.29;100.00
74327;BME280;62745;51.060;13.786;2023-04-15T06:37:29;99120.22;;;7.33;100.00
74327;BME280;62745;51.060;13.786;2023-04-15T06:39:55;99117.75;;;7.24;100.00
74327;BME280;62745;51.060;13.786;2023-04-15T06:42:20;99124.25;;;7.22;100.00
74327;BME280;62745;51.060;13.786;2023-04-15T06:44:46;99122.47;;;7.36;100.00
74327;BME280;62745;51.060;13.786;2023-04-15T06:47:11;99122.94;;;7.39;100.00
74327;BME280;62745;51.060;13.786;2023-04-15T06:49:39;99112.03;;;7.28;100.00
74327;BME280;62745;51.060;13.786;2023-04-15T06:52:04;99120.31;;;7.59;100.00
74327;BME280;62745;51.060;13.786;2023-04-15T06:54:29;99129.78;;;7.81;100.00
74327;BME280;62745;51.060;13.786;2023-04-15T06:56:55;99122.16;;;7.59;100.00
74327;BME280;62745;51.060;13.786;2023-04-15T06:59:20;99115.13;;;7.38;100.00
74327;BME280;62745;51.060;13.786;2023-04-15T07:01:45;99116.97;;;7.31;100.00
74327;BME280;62745;51.060;13.786;2023-04-15T07:04:11;99121.25;;;7.38;100.00
74327;BME280;62745;51.060;13.786;2023-04-15T07:06:36;99140.72;;;7.45;100.00
74327;BME280;62745;51.060;13.786;2023-04-15T07:09:02;99142.78;;;7.50;100.00
74327;BME280;62745;51.060;13.786;2023-04-15T07:11:29;99131.50;;;7.41;100.00
74327;BME280;62745;51.060;13.786;2023-04-15T07:13:54;99136.63;;;7.49;100.00
74327;BME280;62745;51.060;13.786;2023-04-15T07:16:20;99140.31;;;7.48;100.00
74327;BME280;62745;51.060;13.786;2023-04-15T07:18:45;99158.97;;;7.62;100.00
74327;BME280;62745;51.060;13.786;2023-04-15T07:21:11;99157.75;;;7.71;100.00
74327;BME280;62745;51.060;13.786;2023-04-15T07:23:36;99157.78;;;7.84;100.00
74327;BME280;62745;51.060;13.786;2023-04-15T07:26:02;99157.41;;;7.94;100.00
74327;BME280;62745;51.060;13.786;2023-04-15T07:28:27;99151.97;;;8.41;100.00
74327;BME280;62745;51.060;13.786;2023-04-15T07:30:52;99165.84;;;8.30;100.00
74327;BME280;62745;51.060;13.786;2023-04-15T07:33:18;99151.72;;;8.17;100.00
74327;BME280;62745;51.060;13.786;2023-04-15T07:35:43;99155.59;;;8.21;100.00
74327;BME280;62745;51.060;13.786;2023-04-15T07:38:09;99147.00;;;8.19;100.00
74327;BME280;62745;51.060;13.786;2023-04-15T07:40:36;99152.94;;;8.27;100.00
74327;BME280;62745;51.060;13.786;2023-04-15T07:43:02;99170.34;;;8.30;100.00
74327;BME280;62745;51.060;13.786;2023-04-15T07:45:27;99178.38;;;8.43;100.00
74327;BME280;62745;51.060;13.786;2023-04-15T07:47:52;99142.50;;;8.12;100.00
74327;BME280;62745;51.060;13.786;2023-04-15T07:50:18;99170.97;;;8.25;100.00
74327;BME280;62745;51.060;13.786;2023-04-15T07:52:43;99167.06;;;8.21;100.00
74327;BME280;62745;51.060;13.786;2023-04-15T07:55:10;99178.94;;;8.25;100.00
74327;BME280;62745;51.060;13.786;2023-04-15T07:57:36;99177.72;;;8.28;100.00
74327;BME280;62745;51.060;13.786;2023-04-15T08:00:02;99181.44;;;8.47;100.00
74327;BME280;62745;51.060;13.786;2023-04-15T08:02:31;99139.47;;;8.42;100.00
74327;BME280;62745;51.060;13.786;2023-04-15T08:04:56;99178.75;;;8.66;100.00
74327;BME280;62745;51.060;13.786;2023-04-15T08:07:22;99197.59;;;8.85;98.83
74327;BME280;62745;51.060;13.786;2023-04-15T08:09:47;99185.72;;;8.94;99.47
74327;BME280;62745;51.060;13.786;2023-04-15T08:12:13;99180.59;;;8.53;98.04
74327;BME280;62745;51.060;13.786;2023-04-15T08:14:39;99202.09;;;8.51;97.67
74327;BME280;62745;51.060;13.786;2023-04-15T08:17:04;99204.78;;;8.51;98.51
74327;BME280;62745;51.060;13.786;2023-04-15T08:19:31;99206.22;;;8.47;96.17
74327;BME280;62745;51.060;13.786;2023-04-15T08:21:57;99191.69;;;8.43;97.83
74327;BME280;62745;51.060;13.786;2023-04-15T08:24:23;99189.63;;;8.52;97.90
74327;BME280;62745;51.060;13.786;2023-04-15T08:26:54;99210.72;;;8.80;98.20
74327;BME280;62745;51.060;13.786;2023-04-15T08:29:20;99201.28;;;8.84;96.00
74327;BME280;62745;51.060;13.786;2023-04-15T08:31:46;99205.34;;;9.06;97.09
74327;BME280;62745;51.060;13.786;2023-04-15T08:34:11;99204.34;;;9.07;96.82
74327;BME280;62745;51.060;13.786;2023-04-15T08:36:37;99208.19;;;9.24;98.03
74327;BME280;62745;51.060;13.786;2023-04-15T08:39:02;99194.00;;;9.30;98.37
74327;BME280;62745;51.060;13.786;2023-04-15T08:41:33;99198.88;;;9.40;97.00
74327;BME280;62745;51.060;13.786;2023-04-15T08:44:04;99198.28;;;9.45;97.75
74327;BME280;62745;51.060;13.786;2023-04-15T08:46:31;99213.41;;;9.57;96.92
74327;BME280;62745;51.060;13.786;2023-04-15T08:48:57;99211.84;;;9.30;97.81
74327;BME280;62745;51.060;13.786;2023-04-15T08:51:23;99225.19;;;9.23;97.69
74327;BME280;62745;51.060;13.786;2023-04-15T08:53:49;99215.84;;;8.74;96.91
74327;BME280;62745;51.060;13.786;2023-04-15T08:56:15;99231.59;;;8.69;98.35
74327;BME280;62745;51.060;13.786;2023-04-15T08:58:42;99224.44;;;8.50;97.09
74327;BME280;62745;51.060;13.786;2023-04-15T09:01:08;99219.72;;;8.52;98.12
74327;BME280;62745;51.060;13.786;2023-04-15T09:03:33;99234.28;;;8.76;98.21
74327;BME280;62745;51.060;13.786;2023-04-15T09:05:59;99210.91;;;8.52;96.81
74327;BME280;62745;51.060;13.786;2023-04-15T09:08:24;99244.91;;;8.69;95.65
74327;BME280;62745;51.060;13.786;2023-04-15T09:10:50;99246.56;;;8.77;95.88
74327;BME280;62745;51.060;13.786;2023-04-15T09:13:15;99256.59;;;8.68;96.29
74327;BME280;62745;51.060;13.786;2023-04-15T09:15:40;99221.16;;;8.48;95.86
74327;BME280;62745;51.060;13.786;2023-04-15T09:18:06;99252.28;;;8.61;94.50
74327;BME280;62745;51.060;13.786;2023-04-15T09:20:40;99251.44;;;8.54;94.64
74327;BME280;62745;51.060;13.786;2023-04-15T09:23:13;99238.78;;;8.62;96.17
74327;BME280;62745;51.060;13.786;2023-04-15T09:25:40;99250.84;;;8.65;93.82
74327;BME280;62745;51.060;13.786;2023-04-15T09:28:08;99244.50;;;8.46;93.17
74327;BME280;62745;51.060;13.786;2023-04-15T09:30:34;99257.56;;;8.34;92.27
74327;BME280;62745;51.060;13.786;2023-04-15T09:33:01;99254.03;;;8.21;91.93
74327;BME280;62745;51.060;13.786;2023-04-15T09:35:27;99268.00;;;8.36;92.29
74327;BME280;62745;51.060;13.786;2023-04-15T09:38:09;99237.84;;;8.22;92.24
74327;BME280;62745;51.060;13.786;2023-04-15T09:40:39;99268.44;;;8.46;92.98
74327;BME280;62745;51.060;13.786;2023-04-15T09:43:07;99250.22;;;8.43;94.47
74327;BME280;62745;51.060;13.786;2023-04-15T09:45:33;99259.22;;;8.49;92.40
74327;BME280;62745;51.060;13.786;2023-04-15T09:48:15;99232.19;;;8.38;91.08
74327;BME280;62745;51.060;13.786;2023-04-15T09:50:41;99261.50;;;8.58;90.87
74327;BME280;62745;51.060;13.786;2023-04-15T09:53:15;99293.25;;;8.60;90.52
74327;BME280;62745;51.060;13.786;2023-04-15T09:55:45;99295.09;;;8.79;90.80
74327;BME280;62745;51.060;13.786;2023-04-15T09:58:25;99293.25;;;8.73;90.68
74327;BME280;62745;51.060;13.786;2023-04-15T10:00:52;99297.75;;;8.72;91.39
74327;BME280;62745;51.060;13.786;2023-04-15T10:03:29;99299.84;;;8.90;91.15
74327;BME280;62745;51.060;13.786;2023-04-15T10:05:57;99250.44;;;8.68;91.18
74327;BME280;62745;51.060;13.786;2023-04-15T10:08:25;99309.47;;;8.91;89.30
74327;BME280;62745;51.060;13.786;2023-04-15T10:10:51;99254.53;;;8.57;90.22
74327;BME280;62745;51.060;13.786;2023-04-15T10:13:25;99309.84;;;8.75;89.50
74327;BME280;62745;51.060;13.786;2023-04-15T10:16:09;99285.03;;;8.55;88.60
74327;BME280;62745;51.060;13.786;2023-04-15T10:18:37;99275.63;;;8.46;91.00
74327;BME280;62745;51.060;13.786;2023-04-15T10:21:04;99311.50;;;8.83;89.48
74327;BME280;62745;51.060;13.786;2023-04-15T10:23:31;99289.13;;;8.70;88.55
74327;BME280;62745;51.060;13.786;2023-04-15T10:25:57;99313.75;;;8.86;89.22
74327;BME280;62745;51.060;13.786;2023-04-15T10:28:23;99276.25;;;8.67;89.06
74327;BME280;62745;51.060;13.786;2023-04-15T10:30:49;99275.22;;;8.68;88.81
74327;BME280;62745;51.060;13.786;2023-04-15T10:33:18;99283.44;;;8.73;89.32
74327;BME280;62745;51.060;13.786;2023-04-15T10:35:45;99271.53;;;8.63;89.32
74327;BME280;62745;51.060;13.786;2023-04-15T10:41:18;99319.50;;;9.09;87.98
74327;BME280;62745;51.060;13.786;2023-04-15T10:44:03;99291.19;;;8.88;87.20
74327;BME280;62745;51.060;13.786;2023-04-15T10:49:11;99322.56;;;9.26;87.20
74327;BME280;62745;51.060;13.786;2023-04-15T10:51:45;99329.91;;;9.37;86.08
74327;BME280;62745;51.060;13.786;2023-04-15T10:57:06;99297.72;;;9.45;83.17
74327;BME280;62745;51.060;13.786;2023-04-15T10:59:35;99315.53;;;9.64;83.20
74327;BME280;62745;51.060;13.786;2023-04-15T11:02:03;99303.41;;;9.69;82.46
74327;BME280;62745;51.060;13.786;2023-04-15T11:04:50;99326.31;;;9.89;82.18
74327;BME280;62745;51.060;13.786;2023-04-15T11:07:32;99334.44;;;10.14;81.13
74327;BME280;62745;51.060;13.786;2023-04-15T11:09:57;99315.47;;;9.91;81.06
74327;BME280;62745;51.060;13.786;2023-04-15T11:12:33;99305.44;;;9.73;82.36
74327;BME280;62745;51.060;13.786;2023-04-15T11:14:59;99310.56;;;9.81;80.88
74327;BME280;62745;51.060;13.786;2023-04-15T11:17:27;99316.09;;;9.73;81.54
74327;BME280;62745;51.060;13.786;2023-04-15T11:19:55;99309.78;;;9.74;81.97
74327;BME280;62745;51.060;13.786;2023-04-15T11:22:20;99311.41;;;9.75;81.03
74327;BME280;62745;51.060;13.786;2023-04-15T11:24:47;99326.78;;;9.80;80.66
74327;BME280;62745;51.060;13.786;2023-04-15T11:27:22;99353.00;;;9.96;79.75
74327;BME280;62745;51.060;13.786;2023-04-15T11:29:47;99322.88;;;9.69;80.01
74327;BME280;62745;51.060;13.786;2023-04-15T11:32:12;99315.28;;;9.79;81.25
74327;BME280;62745;51.060;13.786;2023-04-15T11:34:38;99372.25;;;10.11;79.49
74327;BME280;62745;51.060;13.786;2023-04-15T11:37:04;99370.59;;;10.04;80.39
74327;BME280;62745;51.060;13.786;2023-04-15T11:39:31;99370.59;;;10.10;79.44
74327;BME280;62745;51.060;13.786;2023-04-15T11:41:56;99330.06;;;9.75;79.87
74327;BME280;62745;51.060;13.786;2023-04-15T11:44:21;99352.13;;;10.02;79.75
74327;BME280;62745;51.060;13.786;2023-04-15T11:46:46;99347.16;;;10.19;78.95
74327;BME280;62745;51.060;13.786;2023-04-15T11:49:25;99318.13;;;9.84;78.18
74327;BME280;62745;51.060;13.786;2023-04-15T11:51:50;99358.84;;;10.18;78.79
74327;BME280;62745;51.060;13.786;2023-04-15T11:54:18;99366.66;;;10.26;77.94
74327;BME280;62745;51.060;13.786;2023-04-15T11:56:49;99387.94;;;10.39;78.13
74327;BME280;62745;51.060;13.786;2023-04-15T11:59:14;99368.31;;;10.14;77.75
74327;BME280;62745;51.060;13.786;2023-04-15T12:01:39;99388.59;;;10.41;78.70
74327;BME280;62745;51.060;13.786;2023-04-15T12:04:13;99392.22;;;10.53;77.78
74327;BME280;62745;51.060;13.786;2023-04-15T12:06:39;99390.13;;;10.62;77.12
74327;BME280;62745;51.060;13.786;2023-04-15T12:11:46;99402.00;;;10.66;76.48
74327;BME280;62745;51.060;13.786;2023-04-15T12:16:43;99407.41;;;10.60;76.36
74327;BME280;62745;51.060;13.786;2023-04-15T12:19:14;99407.75;;;10.70;76.29
74327;BME280;62745;51.060;13.786;2023-04-15T12:21:43;99412.75;;;10.60;75.15
74327;BME280;62745;51.060;13.786;2023-04-15T12:24:10;99404.72;;;12.52;94.12
74327;BME280;62745;51.060;13.786;2023-04-15T12:26:42;99410.91;;;12.34;82.37
74327;BME280;62745;51.060;13.786;2023-04-15T12:29:09;99410.69;;;12.84;85.41
74327;BME280;62745;51.060;13.786;2023-04-15T12:31:35;99404.59;;;13.84;80.52
74327;BME280;62745;51.060;13.786;2023-04-15T12:34:01;99410.09;;;14.64;78.19
74327;BME280;62745;51.060;13.786;2023-04-15T12:36:29;99422.56;;;14.07;74.66
74327;BME280;62745;51.060;13.786;2023-04-15T12:39:00;99409.47;;;14.10;69.64
74327;BME280;62745;51.060;13.786;2023-04-15T12:41:25;99399.56;;;13.88;65.16
74327;BME280;62745;51.060;13.786;2023-04-15T12:43:55;99433.28;;;13.48;68.81
74327;BME280;62745;51.060;13.786;2023-04-15T12:46:20;99429.50;;;12.29;68.34
74327;BME280;62745;51.060;13.786;2023-04-15T12:48:46;99435.00;;;12.16;70.30
74327;BME280;62745;51.060;13.786;2023-04-15T12:51:11;99406.28;;;11.62;69.76
74327;BME280;62745;51.060;13.786;2023-04-15T12:53:37;99435.19;;;11.71;70.68
74327;BME280;62745;51.060;13.786;2023-04-15T12:56:02;99428.38;;;11.51;70.48
74327;BME280;62745;51.060;13.786;2023-04-15T12:58:27;99441.81;;;11.44;71.32
74327;BME280;62745;51.060;13.786;2023-04-15T13:00:53;99448.91;;;12.25;84.61
74327;BME280;62745;51.060;13.786;2023-04-15T13:03:18;99455.81;;;11.96;69.94